createdAt,value
2022-08-19T00:01:52.994Z,10.50
2022-08-19T00:04:27.305Z,9.80
2022-08-19T00:06:54.588Z,10.73
2022-08-19T00:09:23.191Z,10.10
2022-08-19T00:11:50.258Z,11.05
2022-08-19T00:14:18.713Z,10.50
2022-08-19T00:16:48.644Z,11.02
2022-08-19T00:19:16.443Z,10.65
2022-08-19T00:21:44.140Z,10.75
2022-08-19T00:24:13.688Z,10.32
2022-08-19T00:26:41.131Z,10.90
2022-08-19T00:29:09.390Z,10.95
2022-08-19T00:31:36.591Z,10.85
2022-08-19T00:34:04.024Z,10.70
2022-08-19T00:36:31.259Z,11.32
2022-08-19T00:38:57.817Z,11.73
2022-08-19T00:41:25.912Z,11.07
2022-08-19T00:44:16.320Z,10.23
2022-08-19T00:46:55.326Z,11.45
2022-08-19T00:49:36.976Z,11.13
2022-08-19T00:52:06.837Z,10.53
2022-08-19T00:54:34.042Z,11.20
2022-08-19T00:57:03.077Z,10.38
2022-08-19T00:59:58.798Z,11.15
2022-08-19T01:02:17.783Z,11.07
2022-08-19T01:04:44.404Z,11.40
2022-08-19T01:07:15.100Z,11.60
2022-08-19T01:09:44.189Z,10.57
2022-08-19T01:12:10.776Z,10.00
2022-08-19T01:14:40.652Z,10.98
2022-08-19T01:17:09.685Z,11.10
2022-08-19T01:19:44.004Z,10.27
2022-08-19T01:22:35.835Z,10.32
2022-08-19T01:25:03.537Z,10.55
2022-08-19T01:27:44.727Z,10.80
2022-08-19T01:30:25.736Z,10.43
2022-08-19T01:32:53.267Z,10.65
2022-08-19T01:35:21.246Z,10.27
2022-08-19T01:37:55.145Z,10.38
2022-08-19T01:40:24.402Z,9.77
2022-08-19T01:42:51.986Z,9.57
2022-08-19T01:45:21.509Z,10.63
2022-08-19T01:47:52.727Z,9.85
2022-08-19T01:50:28.659Z,9.25
2022-08-19T01:53:06.257Z,9.80
2022-08-19T01:55:40.965Z,9.80
2022-08-19T01:58:15.265Z,9.10
2022-08-19T02:00:42.592Z,10.48
2022-08-19T02:03:10.291Z,9.90
2022-08-19T02:05:36.920Z,9.55
2022-08-19T02:08:03.699Z,9.00
2022-08-19T02:10:30.237Z,8.90
2022-08-19T02:12:56.775Z,10.20
2022-08-19T02:15:23.466Z,9.25
2022-08-19T02:17:50.123Z,9.70
2022-08-19T02:20:16.834Z,9.60
2022-08-19T02:22:43.950Z,8.60
2022-08-19T02:25:14.548Z,9.52
2022-08-19T02:27:42.565Z,9.20
2022-08-19T02:30:14.275Z,9.43
2022-08-19T02:32:44.466Z,9.30
2022-08-19T02:35:12.828Z,9.40
2022-08-19T02:37:58.150Z,10.02
2022-08-19T02:40:24.934Z,9.15
2022-08-19T02:42:52.577Z,8.68
2022-08-19T02:45:19.456Z,9.17
2022-08-19T02:47:45.964Z,8.43
2022-08-19T02:50:13.694Z,9.32
2022-08-19T02:52:40.270Z,8.82
2022-08-19T02:55:07.726Z,8.65
2022-08-19T02:57:35.090Z,8.53
2022-08-19T03:00:02.692Z,8.95
2022-08-19T03:02:29.470Z,8.75
2022-08-19T03:04:56.005Z,9.13
2022-08-19T03:07:22.577Z,9.55
2022-08-19T03:09:49.174Z,9.33
2022-08-19T03:12:15.816Z,7.93
2022-08-19T03:14:42.360Z,9.23
2022-08-19T03:17:08.917Z,8.60
2022-08-19T03:19:36.226Z,8.07
2022-08-19T03:22:03.541Z,8.20
2022-08-19T03:24:30.121Z,9.77
2022-08-19T03:26:59.640Z,8.43
2022-08-19T03:29:32.512Z,9.23
2022-08-19T03:32:01.871Z,8.90
2022-08-19T03:34:30.641Z,8.60
2022-08-19T03:36:59.598Z,7.93
2022-08-19T03:39:26.807Z,8.30
2022-08-19T03:42:32.503Z,8.50
2022-08-19T03:44:45.775Z,8.52
2022-08-19T03:47:16.982Z,8.63
2022-08-19T03:49:43.775Z,7.78
2022-08-19T03:52:10.376Z,8.18
2022-08-19T03:54:39.319Z,8.32
2022-08-19T03:57:06.570Z,8.77
2022-08-19T03:59:36.152Z,8.40
2022-08-19T04:02:09.830Z,7.93
2022-08-19T04:04:38.473Z,8.68
2022-08-19T04:07:05.471Z,8.45
2022-08-19T04:09:33.922Z,7.88
2022-08-19T04:12:00.517Z,7.87
2022-08-19T04:14:31.288Z,8.65
2022-08-19T04:16:59.706Z,8.07
2022-08-19T04:19:27.056Z,7.97
2022-08-19T04:21:55.249Z,8.63
2022-08-19T04:24:23.027Z,8.37
2022-08-19T04:26:50.086Z,8.43
2022-08-19T04:29:22.887Z,8.43
2022-08-19T04:31:50.354Z,8.93
2022-08-19T04:34:23.087Z,9.30
2022-08-19T04:36:51.872Z,8.40
2022-08-19T04:39:22.181Z,8.30
2022-08-19T04:42:07.407Z,8.63
2022-08-19T04:44:35.925Z,8.63
2022-08-19T04:47:10.802Z,8.60
2022-08-19T04:49:38.181Z,8.67
2022-08-19T04:52:04.773Z,8.80
2022-08-19T04:54:38.794Z,9.38
2022-08-19T04:57:11.099Z,8.75
2022-08-19T04:59:39.584Z,8.55
2022-08-19T05:02:08.629Z,7.57
2022-08-19T05:04:38.985Z,8.85
2022-08-19T05:07:07.248Z,7.75
2022-08-19T05:09:55.618Z,7.95
2022-08-19T05:12:20.403Z,8.43
2022-08-19T05:14:48.759Z,8.40
2022-08-19T05:17:37.481Z,9.38
2022-08-19T05:20:22.598Z,8.82
2022-08-19T05:22:49.318Z,8.05
2022-08-19T05:25:20.014Z,8.32
2022-08-19T05:27:48.029Z,7.27
2022-08-19T05:30:15.229Z,8.05
2022-08-19T05:32:42.820Z,8.45
2022-08-19T05:35:10.414Z,8.98
2022-08-19T05:37:37.213Z,8.13
2022-08-19T05:40:05.014Z,8.23
2022-08-19T05:42:31.635Z,8.32
2022-08-19T05:44:58.419Z,8.25
2022-08-19T05:47:25.368Z,8.05
2022-08-19T05:49:52.039Z,8.57
2022-08-19T05:52:19.653Z,8.27
2022-08-19T05:54:53.056Z,7.50
2022-08-19T05:57:20.554Z,8.18
2022-08-19T05:59:49.359Z,8.52
2022-08-19T06:02:19.582Z,7.63
2022-08-19T06:04:46.327Z,7.17
2022-08-19T06:07:13.148Z,7.32
2022-08-19T06:09:40.598Z,7.47
2022-08-19T06:12:07.878Z,7.75
2022-08-19T06:14:40.358Z,8.52
2022-08-19T06:17:09.059Z,7.87
2022-08-19T06:19:40.819Z,7.65
2022-08-19T06:22:08.509Z,8.05
2022-08-19T06:24:36.351Z,7.43
2022-08-19T06:27:06.327Z,8.00
2022-08-19T06:29:33.683Z,6.93
2022-08-19T06:32:03.362Z,7.45
2022-08-19T06:34:32.704Z,7.03
2022-08-19T06:37:01.996Z,7.82
2022-08-19T06:39:31.846Z,6.75
2022-08-19T06:42:01.013Z,7.27
2022-08-19T06:44:30.568Z,7.38
2022-08-19T06:46:58.548Z,6.63
2022-08-19T06:49:27.074Z,6.28
2022-08-19T06:51:55.306Z,6.15
2022-08-19T06:54:22.515Z,6.97
2022-08-19T06:56:50.234Z,6.30
2022-08-19T06:59:19.496Z,5.85
2022-08-19T07:01:49.803Z,5.55
2022-08-19T07:04:22.757Z,6.13
2022-08-19T07:06:55.193Z,6.13
2022-08-19T07:09:22.238Z,5.45
2022-08-19T07:11:51.520Z,6.20
2022-08-19T07:14:20.593Z,5.95
2022-08-19T07:16:49.842Z,6.53
2022-08-19T07:19:18.677Z,5.93
2022-08-19T07:21:49.412Z,6.70
2022-08-19T07:24:17.757Z,6.40
2022-08-19T07:26:45.051Z,5.85
2022-08-19T07:29:12.507Z,6.75
2022-08-19T07:31:40.500Z,5.67
2022-08-19T07:34:12.879Z,5.07
2022-08-19T07:36:43.257Z,4.72
2022-08-19T07:39:22.495Z,5.05
2022-08-19T07:41:51.279Z,5.65
2022-08-19T07:44:20.986Z,4.63
2022-08-19T07:46:53.479Z,4.70
2022-08-19T07:49:21.074Z,5.30
2022-08-19T07:51:50.946Z,4.75
2022-08-19T07:54:19.019Z,4.20
2022-08-19T07:56:45.814Z,4.07
2022-08-19T07:59:12.847Z,5.00
2022-08-19T08:01:41.684Z,4.65
2022-08-19T08:04:27.401Z,4.85
2022-08-19T08:07:12.890Z,4.55
2022-08-19T08:09:43.131Z,4.57
2022-08-19T08:12:34.684Z,3.92
2022-08-19T08:15:08.871Z,5.45
2022-08-19T08:17:49.169Z,5.15
2022-08-19T08:20:19.427Z,4.65
2022-08-19T08:23:05.886Z,4.27
2022-08-19T08:25:34.265Z,3.72
2022-08-19T08:28:01.272Z,4.93
2022-08-19T08:30:31.017Z,5.18
2022-08-19T08:33:00.231Z,5.00
2022-08-19T08:35:29.271Z,4.10
2022-08-19T08:37:57.338Z,4.07
2022-08-19T08:40:46.322Z,3.95
2022-08-19T08:43:15.846Z,4.40
2022-08-19T08:45:53.804Z,3.92
2022-08-19T08:48:35.637Z,3.40
2022-08-19T08:51:06.197Z,3.58
2022-08-19T08:53:40.462Z,4.03
2022-08-19T08:56:13.845Z,4.57
2022-08-19T08:58:54.446Z,3.33
2022-08-19T09:01:21.653Z,3.50
2022-08-19T09:03:48.499Z,4.28
2022-08-19T09:06:43.924Z,3.85
2022-08-19T09:09:33.334Z,4.45
2022-08-19T09:12:14.982Z,3.95
2022-08-19T09:14:51.136Z,3.73
2022-08-19T09:17:20.110Z,3.78
2022-08-19T09:19:51.298Z,4.13
2022-08-19T09:22:22.897Z,3.90
2022-08-19T09:24:55.150Z,4.43
2022-08-19T09:27:42.044Z,3.50
2022-08-19T09:30:16.622Z,3.97
2022-08-19T09:32:44.419Z,3.80
2022-08-19T09:35:12.042Z,3.83
2022-08-19T09:37:38.788Z,3.97
2022-08-19T09:40:09.230Z,4.10
2022-08-19T09:42:38.823Z,4.82
2022-08-19T09:45:20.489Z,4.03
2022-08-19T09:47:47.318Z,4.07
2022-08-19T09:50:16.374Z,4.13
2022-08-19T09:52:56.935Z,4.53
2022-08-19T09:55:31.784Z,4.22
2022-08-19T09:58:00.994Z,4.90
2022-08-19T10:00:27.733Z,4.85
2022-08-19T10:02:54.280Z,5.50
2022-08-19T10:05:42.445Z,4.60
2022-08-19T10:08:13.465Z,5.05
2022-08-19T10:10:46.302Z,5.43
2022-08-19T10:13:14.789Z,6.63
2022-08-19T10:15:47.486Z,7.38
2022-08-19T10:18:15.569Z,4.50
2022-08-19T10:20:42.780Z,5.63
2022-08-19T10:23:10.443Z,5.80
2022-08-19T10:25:38.363Z,6.40
2022-08-19T10:28:10.778Z,6.43
2022-08-19T10:30:37.675Z,5.43
2022-08-19T10:33:08.684Z,6.78
2022-08-19T10:35:42.632Z,7.03
2022-08-19T10:38:31.330Z,5.95
2022-08-19T10:40:59.367Z,6.50
2022-08-19T10:43:26.018Z,4.93
2022-08-19T10:45:57.015Z,6.75
2022-08-19T10:48:23.575Z,5.60
2022-08-19T10:51:08.903Z,6.10
2022-08-19T10:53:35.553Z,7.10
2022-08-19T10:56:21.406Z,7.30
2022-08-19T10:58:49.860Z,7.25
2022-08-19T11:01:16.515Z,6.97
2022-08-19T11:03:43.360Z,7.07
2022-08-19T11:06:17.602Z,5.70
2022-08-19T11:08:45.801Z,6.87
2022-08-19T11:11:13.133Z,6.50
2022-08-19T11:13:41.852Z,6.43
2022-08-19T11:16:11.552Z,6.97
2022-08-19T11:18:43.659Z,6.88
2022-08-19T11:21:26.130Z,9.00
2022-08-19T11:23:56.496Z,6.65
2022-08-19T11:26:24.466Z,6.60
2022-08-19T11:28:55.022Z,6.05
2022-08-19T11:31:25.032Z,6.82
2022-08-19T11:33:58.229Z,7.60
2022-08-19T11:36:27.892Z,7.40
2022-08-19T11:38:55.437Z,7.55
2022-08-19T11:41:26.431Z,7.72
2022-08-19T11:43:56.071Z,8.43
2022-08-19T11:46:24.864Z,8.30
2022-08-19T11:48:52.011Z,8.30
2022-08-19T11:51:22.753Z,7.82
2022-08-19T11:53:50.442Z,7.78
2022-08-19T11:56:18.214Z,7.68
2022-08-19T11:58:45.120Z,7.03
2022-08-19T12:01:15.598Z,7.35
2022-08-19T12:03:43.109Z,7.40
2022-08-19T12:06:13.802Z,6.80
2022-08-19T12:08:44.880Z,8.27
2022-08-19T12:11:13.175Z,7.13
2022-08-19T12:13:40.537Z,7.75
2022-08-19T12:16:15.911Z,8.20
2022-08-19T12:18:52.963Z,7.53
2022-08-19T12:21:23.051Z,7.30
2022-08-19T12:23:55.216Z,7.80
2022-08-19T12:26:23.095Z,7.10
2022-08-19T12:28:50.005Z,7.78
2022-08-19T12:31:18.247Z,8.27
2022-08-19T12:33:44.855Z,8.40
2022-08-19T12:36:13.738Z,8.53
2022-08-19T12:38:40.963Z,9.27
2022-08-19T12:41:11.137Z,8.07
2022-08-19T12:43:42.745Z,7.85
2022-08-19T12:46:10.903Z,7.63
2022-08-19T12:48:40.190Z,7.67
2022-08-19T12:51:20.521Z,7.88
2022-08-19T12:53:48.391Z,8.88
2022-08-19T12:56:15.666Z,8.88
2022-08-19T12:58:50.460Z,10.13
2022-08-19T13:01:23.238Z,8.43
2022-08-19T13:03:52.982Z,7.97
2022-08-19T13:06:20.453Z,8.70
2022-08-19T13:08:47.329Z,8.50
2022-08-19T13:11:20.164Z,7.03
2022-08-19T13:13:48.751Z,7.67
2022-08-19T13:16:16.179Z,7.55
2022-08-19T13:18:45.188Z,7.40
2022-08-19T13:21:14.897Z,7.10
2022-08-19T13:23:42.323Z,8.68
2022-08-19T13:26:10.348Z,6.47
2022-08-19T13:28:55.870Z,6.45
2022-08-19T13:31:43.443Z,9.10
2022-08-19T13:34:10.147Z,6.60
2022-08-19T13:36:37.898Z,6.53
2022-08-19T13:39:05.850Z,5.77
2022-08-19T13:41:32.555Z,5.82
2022-08-19T13:43:59.080Z,6.15
2022-08-19T13:46:25.686Z,6.45
2022-08-19T13:48:52.216Z,5.90
2022-08-19T13:51:19.648Z,5.53
2022-08-19T13:53:48.059Z,6.53
2022-08-19T13:56:19.498Z,5.25
2022-08-19T13:58:47.567Z,5.30
2022-08-19T14:01:20.515Z,5.47
2022-08-19T14:03:51.342Z,5.27
2022-08-19T14:06:17.853Z,5.30
2022-08-19T14:08:46.397Z,5.93
2022-08-19T14:11:13.136Z,5.22
2022-08-19T14:13:39.918Z,5.20
2022-08-19T14:16:10.851Z,5.43
2022-08-19T14:18:38.375Z,5.35
2022-08-19T14:21:05.604Z,5.30
2022-08-19T14:23:33.308Z,6.13
2022-08-19T14:26:12.498Z,5.40
2022-08-19T14:28:41.745Z,4.50
2022-08-19T14:31:13.675Z,4.60
2022-08-19T14:33:41.347Z,4.78
2022-08-19T14:36:08.105Z,4.40
2022-08-19T14:38:35.397Z,4.72
2022-08-19T14:41:17.120Z,4.83
2022-08-19T14:43:47.317Z,4.63
2022-08-19T14:46:21.350Z,4.03
2022-08-19T14:48:51.685Z,4.88
2022-08-19T14:51:21.319Z,4.88
2022-08-19T14:53:50.807Z,4.60
2022-08-19T14:56:20.809Z,4.10
2022-08-19T14:58:47.734Z,4.82
2022-08-19T15:01:14.918Z,4.85
2022-08-19T15:03:42.038Z,5.07
2022-08-19T15:06:08.944Z,4.03
2022-08-19T15:08:41.962Z,4.93
2022-08-19T15:11:10.999Z,5.10
2022-08-19T15:13:38.266Z,3.88
2022-08-19T15:16:05.207Z,4.50
2022-08-19T15:18:31.918Z,4.07
2022-08-19T15:20:58.428Z,4.60
2022-08-19T15:23:25.044Z,4.80
2022-08-19T15:25:55.782Z,4.25
2022-08-19T15:28:24.214Z,3.83
2022-08-19T15:30:51.040Z,4.10
2022-08-19T15:33:18.328Z,4.00
2022-08-19T15:35:45.258Z,4.22
2022-08-19T15:38:13.848Z,4.38
2022-08-19T15:40:42.211Z,4.97
2022-08-19T15:43:08.906Z,4.30
2022-08-19T15:45:35.530Z,4.28
2022-08-19T15:48:04.011Z,4.93
2022-08-19T15:50:35.748Z,4.00
2022-08-19T15:53:07.335Z,4.40
2022-08-19T15:55:36.775Z,4.43
2022-08-19T15:58:28.869Z,3.67
2022-08-19T16:01:27.376Z,3.92
2022-08-19T16:04:15.682Z,3.75
2022-08-19T16:06:49.378Z,3.90
2022-08-19T16:09:17.810Z,3.77
2022-08-19T16:11:46.289Z,3.40
2022-08-19T16:14:17.327Z,4.20
2022-08-19T16:16:46.667Z,3.35
2022-08-19T16:19:15.679Z,3.92
2022-08-19T16:21:49.126Z,3.40
2022-08-19T16:24:21.008Z,4.07
2022-08-19T16:26:48.181Z,4.68
2022-08-19T16:29:27.754Z,4.00
2022-08-19T16:32:03.671Z,5.00
2022-08-19T16:34:30.343Z,3.43
2022-08-19T16:36:57.065Z,3.65
2022-08-19T16:39:24.077Z,3.83
2022-08-19T16:41:51.459Z,4.05
2022-08-19T16:44:18.777Z,4.38
2022-08-19T16:46:47.301Z,3.83
2022-08-19T16:49:53.656Z,4.53
2022-08-19T16:52:12.518Z,4.75
2022-08-19T16:54:43.456Z,4.53
2022-08-19T16:57:11.841Z,4.28
2022-08-19T16:59:48.454Z,4.30
2022-08-19T17:02:22.343Z,4.20
2022-08-19T17:04:57.778Z,4.60
2022-08-19T17:07:33.167Z,4.75
2022-08-19T17:10:01.355Z,4.13
2022-08-19T17:12:31.652Z,3.90
2022-08-19T17:15:00.683Z,4.18
2022-08-19T17:17:29.400Z,4.97
2022-08-19T17:19:58.591Z,4.80
2022-08-19T17:22:25.196Z,4.60
2022-08-19T17:24:51.794Z,5.00
2022-08-19T17:27:20.605Z,4.63
2022-08-19T17:29:47.350Z,5.13
2022-08-19T17:32:15.296Z,4.63
2022-08-19T17:34:41.868Z,4.85
2022-08-19T17:37:08.516Z,4.73
2022-08-19T17:39:39.689Z,4.97
2022-08-19T17:42:08.245Z,6.60
2022-08-19T17:44:36.567Z,5.88
2022-08-19T17:47:04.219Z,6.55
2022-08-19T17:49:31.296Z,5.80
2022-08-19T17:52:00.193Z,5.60
2022-08-19T17:54:32.381Z,4.70
2022-08-19T17:57:01.210Z,6.57
2022-08-19T17:59:29.947Z,6.38
2022-08-19T18:01:57.552Z,5.00
2022-08-19T18:04:25.607Z,6.40
2022-08-19T18:06:54.995Z,5.38
2022-08-19T18:09:41.903Z,6.10
2022-08-19T18:12:11.647Z,6.25
2022-08-19T18:14:39.562Z,6.20
2022-08-19T18:17:10.311Z,6.03
2022-08-19T18:19:41.113Z,5.88
2022-08-19T18:22:20.284Z,7.22
2022-08-19T18:24:46.824Z,5.72
2022-08-19T18:27:13.636Z,5.73
2022-08-19T18:29:40.328Z,5.72
2022-08-19T18:32:16.189Z,6.53
2022-08-19T18:34:44.065Z,5.72
2022-08-19T18:37:11.661Z,6.55
2022-08-19T18:39:57.274Z,6.43
2022-08-19T18:42:42.455Z,6.43
2022-08-19T18:45:28.840Z,6.10
2022-08-19T18:48:26.564Z,7.18
2022-08-19T18:50:55.914Z,7.25
2022-08-19T18:53:22.435Z,6.53
2022-08-19T18:55:51.850Z,6.20
2022-08-19T18:58:18.464Z,6.60
2022-08-19T19:00:45.410Z,5.97
2022-08-19T19:03:11.950Z,5.95
2022-08-19T19:05:39.876Z,6.07
2022-08-19T19:08:07.369Z,5.75
2022-08-19T19:10:35.450Z,5.90
2022-08-19T19:13:02.214Z,5.40
2022-08-19T19:15:29.985Z,6.03
2022-08-19T19:17:56.633Z,6.00
2022-08-19T19:20:36.312Z,6.28
2022-08-19T19:23:03.963Z,6.28
2022-08-19T19:25:49.635Z,5.90
2022-08-19T19:28:27.716Z,5.55
2022-08-19T19:30:58.437Z,5.50
2022-08-19T19:33:26.846Z,5.57
2022-08-19T19:35:53.961Z,5.90
2022-08-19T19:38:20.523Z,5.75
2022-08-19T19:40:47.315Z,8.10
2022-08-19T19:43:15.289Z,5.77
2022-08-19T19:45:41.824Z,6.13
2022-08-19T19:48:13.638Z,6.30
2022-08-19T19:50:40.616Z,8.20
2022-08-19T19:53:07.177Z,5.85
2022-08-19T19:55:33.784Z,5.50
2022-08-19T19:58:00.337Z,5.75
2022-08-19T20:00:26.904Z,6.43
2022-08-19T20:02:56.149Z,5.70
2022-08-19T20:05:23.928Z,7.47
2022-08-19T20:08:10.902Z,6.10
2022-08-19T20:10:38.382Z,5.60
2022-08-19T20:13:05.840Z,6.20
2022-08-19T20:15:33.089Z,6.15
2022-08-19T20:18:00.797Z,5.57
2022-08-19T20:20:27.473Z,5.50
2022-08-19T20:22:54.125Z,5.38
2022-08-19T20:25:22.220Z,6.40
2022-08-19T20:27:49.315Z,5.95
2022-08-19T20:30:19.835Z,6.03
2022-08-19T20:32:49.210Z,5.37
2022-08-19T20:35:18.629Z,5.53
2022-08-19T20:37:45.195Z,5.50
2022-08-19T20:40:13.442Z,5.32
2022-08-19T20:42:41.884Z,6.28
2022-08-19T20:45:18.015Z,5.80
2022-08-19T20:48:02.471Z,4.97
2022-08-19T20:50:30.131Z,5.32
2022-08-19T20:52:57.495Z,5.70
2022-08-19T20:55:25.814Z,5.55
2022-08-19T20:57:52.418Z,7.50
2022-08-19T21:00:19.141Z,5.10
2022-08-19T21:02:46.817Z,5.40
2022-08-19T21:05:13.817Z,4.97
2022-08-19T21:07:40.454Z,5.47
2022-08-19T21:10:07.745Z,4.80
2022-08-19T21:12:34.692Z,4.80
2022-08-19T21:15:01.314Z,5.00
2022-08-19T21:17:27.860Z,4.70
2022-08-19T21:19:54.448Z,4.35
2022-08-19T21:22:21.203Z,5.67
2022-08-19T21:24:47.895Z,4.40
2022-08-19T21:27:14.446Z,4.40
2022-08-19T21:29:42.119Z,4.60
2022-08-19T21:32:11.164Z,4.57
2022-08-19T21:34:41.290Z,4.57
2022-08-19T21:37:13.977Z,4.72
2022-08-19T21:39:51.416Z,4.72
2022-08-19T21:42:18.044Z,4.50
2022-08-19T21:44:45.936Z,4.60
2022-08-19T21:47:12.944Z,4.37
2022-08-19T21:49:39.577Z,4.22
2022-08-19T21:52:06.801Z,4.20
2022-08-19T21:54:37.703Z,4.43
2022-08-19T21:57:09.922Z,4.30
2022-08-19T21:59:43.504Z,3.73
2022-08-19T22:02:22.048Z,4.20
2022-08-19T22:04:52.948Z,4.18
2022-08-19T22:07:20.859Z,3.60
2022-08-19T22:09:49.193Z,3.92
2022-08-19T22:12:29.504Z,4.00
2022-08-19T22:14:57.193Z,3.67
2022-08-19T22:17:24.458Z,4.00
2022-08-19T22:19:52.313Z,4.07
2022-08-19T22:22:30.664Z,3.83
2022-08-19T22:25:04.367Z,3.80
2022-08-19T22:27:31.078Z,3.75
2022-08-19T22:29:57.726Z,3.55
2022-08-19T22:32:26.987Z,3.83
2022-08-19T22:34:56.726Z,3.63
2022-08-19T22:37:23.458Z,3.07
2022-08-19T22:39:50.097Z,3.70
2022-08-19T22:42:20.803Z,3.75
2022-08-19T22:44:48.746Z,3.63
2022-08-19T22:47:15.543Z,3.78
2022-08-19T22:49:43.587Z,3.47
2022-08-19T22:52:19.739Z,3.28
2022-08-19T22:54:48.422Z,3.42
2022-08-19T22:57:16.158Z,3.33
2022-08-19T22:59:42.956Z,3.10
2022-08-19T23:02:10.032Z,2.93
2022-08-19T23:04:36.702Z,3.03
2022-08-19T23:07:04.817Z,3.53
2022-08-19T23:09:31.408Z,2.90
2022-08-19T23:11:58.260Z,3.03
2022-08-19T23:14:24.798Z,3.00
2022-08-19T23:16:52.842Z,2.97
2022-08-19T23:19:21.617Z,3.10
2022-08-19T23:21:48.928Z,2.75
2022-08-19T23:24:15.542Z,2.83
2022-08-19T23:27:04.848Z,3.07
2022-08-19T23:29:50.325Z,2.70
2022-08-19T23:32:19.133Z,3.47
2022-08-19T23:34:45.734Z,2.95
2022-08-19T23:37:12.271Z,2.72
2022-08-19T23:39:38.893Z,2.67
2022-08-19T23:42:11.602Z,2.65
2022-08-19T23:44:51.316Z,3.20
2022-08-19T23:47:18.283Z,3.20
2022-08-19T23:49:44.793Z,3.38
2022-08-19T23:52:11.312Z,2.60
2022-08-19T23:54:43.575Z,2.85
2022-08-19T23:57:13.774Z,3.17
2022-08-19T23:59:42.404Z,3.33
